createdAt,value
2023-05-06T00:00:00.271Z,12.07
2023-05-06T00:01:00.182Z,12.03
2023-05-06T00:02:00.164Z,12.03
2023-05-06T00:03:00.246Z,12.02
2023-05-06T00:04:00.331Z,12.02
2023-05-06T00:05:00.246Z,12.07
2023-05-06T00:06:00.124Z,12.02
2023-05-06T00:07:00.256Z,12.03
2023-05-06T00:08:00.089Z,12.05
2023-05-06T00:09:00.165Z,12.03
2023-05-06T00:10:00.061Z,11.99
2023-05-06T00:11:00.097Z,12.00
2023-05-06T00:12:00.064Z,11.99
2023-05-06T00:13:00.122Z,11.99
2023-05-06T00:14:00.036Z,11.97
2023-05-06T00:15:00.206Z,11.96
2023-05-06T00:16:00.131Z,11.96
2023-05-06T00:17:00.299Z,11.96
2023-05-06T00:18:00.287Z,11.95
2023-05-06T00:18:59.948Z,11.95
2023-05-06T00:19:59.965Z,11.95
2023-05-06T00:21:00.216Z,11.95
2023-05-06T00:21:59.927Z,11.95
2023-05-06T00:23:00.048Z,11.95
2023-05-06T00:24:00.017Z,11.96
2023-05-06T00:24:59.982Z,12.05
2023-05-06T00:25:59.934Z,12.03
2023-05-06T00:26:59.899Z,12.02
2023-05-06T00:28:00.050Z,12.00
2023-05-06T00:28:59.884Z,12.02
2023-05-06T00:29:59.852Z,11.99
2023-05-06T00:31:00.028Z,11.96
2023-05-06T00:31:59.968Z,11.95
2023-05-06T00:32:59.880Z,11.93
2023-05-06T00:33:59.843Z,11.91
2023-05-06T00:34:59.822Z,11.95
2023-05-06T00:35:59.800Z,11.93
2023-05-06T00:36:59.896Z,11.91
2023-05-06T00:37:59.836Z,11.91
2023-05-06T00:38:59.817Z,11.89
2023-05-06T00:39:59.861Z,11.91
2023-05-06T00:40:59.813Z,11.91
2023-05-06T00:41:59.817Z,11.93
2023-05-06T00:42:59.783Z,11.96
2023-05-06T00:43:59.710Z,11.96
2023-05-06T00:44:59.703Z,11.97
2023-05-06T00:45:59.794Z,11.95
2023-05-06T00:46:59.804Z,11.91
2023-05-06T00:47:59.778Z,11.93
2023-05-06T00:48:59.761Z,11.95
2023-05-06T00:49:59.713Z,11.95
2023-05-06T00:50:59.647Z,11.96
2023-05-06T00:51:59.635Z,11.95
2023-05-06T00:52:59.633Z,11.99
2023-05-06T00:53:59.702Z,11.93
2023-05-06T00:54:59.606Z,11.93
2023-05-06T00:55:59.763Z,11.89
2023-05-06T00:56:59.598Z,11.86
2023-05-06T00:57:59.721Z,11.89
2023-05-06T00:58:59.620Z,11.88
2023-05-06T00:59:59.571Z,11.86
2023-05-06T01:00:59.648Z,11.83
2023-05-06T01:01:59.964Z,11.86
2023-05-06T01:02:59.620Z,11.85
2023-05-06T01:03:59.556Z,11.88
2023-05-06T01:04:59.602Z,11.85
2023-05-06T01:05:59.453Z,11.85
2023-05-06T01:06:59.560Z,11.85
2023-05-06T01:07:59.475Z,11.86
2023-05-06T01:08:59.811Z,11.88
2023-05-06T01:09:59.460Z,11.85
2023-05-06T01:10:59.401Z,11.83
2023-05-06T01:11:59.596Z,11.83
2023-05-06T01:12:59.518Z,11.80
2023-05-06T01:13:59.449Z,11.83
2023-05-06T01:14:59.339Z,11.81
2023-05-06T01:15:59.394Z,11.83
2023-05-06T01:16:59.477Z,11.81
2023-05-06T01:17:59.357Z,11.78
2023-05-06T01:18:59.322Z,11.81
2023-05-06T01:19:59.451Z,11.81
2023-05-06T01:20:59.305Z,11.78
2023-05-06T01:21:59.286Z,11.80
2023-05-06T01:22:59.299Z,11.78
2023-05-06T01:23:59.361Z,11.78
2023-05-06T01:24:59.261Z,11.77
2023-05-06T01:25:59.260Z,11.74
2023-05-06T01:26:59.283Z,11.73
2023-05-06T01:27:59.298Z,11.73
2023-05-06T01:28:59.229Z,11.73
2023-05-06T01:29:59.237Z,11.70
2023-05-06T01:30:59.249Z,11.68
2023-05-06T01:31:59.242Z,11.67
2023-05-06T01:32:59.292Z,11.73
2023-05-06T01:33:59.188Z,11.68
2023-05-06T01:34:59.177Z,11.67
2023-05-06T01:35:59.171Z,11.65
2023-05-06T01:36:59.155Z,11.68
2023-05-06T01:37:59.296Z,11.63
2023-05-06T01:38:59.117Z,11.63
2023-05-06T01:39:59.115Z,11.63
2023-05-06T01:40:59.155Z,11.68
2023-05-06T01:41:59.157Z,11.68
2023-05-06T01:42:59.112Z,11.67
2023-05-06T01:44:00.197Z,11.68
2023-05-06T01:44:59.095Z,11.70
2023-05-06T01:45:59.185Z,11.70
2023-05-06T01:46:59.058Z,11.67
2023-05-06T01:47:59.065Z,11.67
2023-05-06T01:48:59.029Z,11.73
2023-05-06T01:49:59.022Z,11.73
2023-05-06T01:50:59.021Z,11.73
2023-05-06T01:51:58.990Z,11.73
2023-05-06T01:52:59.600Z,11.73
2023-05-06T01:53:58.978Z,11.70
2023-05-06T01:54:58.930Z,11.68
2023-05-06T01:55:59.041Z,11.68
2023-05-06T01:56:59.027Z,11.67
2023-05-06T01:57:58.961Z,11.68
2023-05-06T01:58:59.733Z,11.71
2023-05-06T01:59:58.898Z,11.77
2023-05-06T02:00:58.920Z,11.73
2023-05-06T02:01:58.919Z,11.67
2023-05-06T02:02:58.910Z,11.68
2023-05-06T02:03:58.945Z,11.65
2023-05-06T02:04:58.874Z,11.63
2023-05-06T02:05:58.901Z,11.62
2023-05-06T02:06:58.841Z,11.62
2023-05-06T02:07:59.816Z,11.62
2023-05-06T02:08:58.877Z,11.65
2023-05-06T02:09:58.886Z,11.63
2023-05-06T02:10:58.766Z,11.63
2023-05-06T02:11:58.903Z,11.67
2023-05-06T02:12:59.287Z,11.71
2023-05-06T02:13:58.715Z,11.73
2023-05-06T02:14:58.737Z,11.71
2023-05-06T02:15:58.799Z,11.74
2023-05-06T02:16:58.839Z,11.74
2023-05-06T02:17:58.766Z,11.70
2023-05-06T02:18:58.782Z,11.68
2023-05-06T02:19:58.733Z,11.63
2023-05-06T02:20:58.721Z,11.67
2023-05-06T02:21:58.745Z,11.68
2023-05-06T02:22:59.122Z,11.71
2023-05-06T02:23:58.751Z,11.73
2023-05-06T02:24:58.642Z,11.67
2023-05-06T02:25:58.637Z,11.68
2023-05-06T02:26:58.615Z,11.67
2023-05-06T02:27:58.617Z,11.60
2023-05-06T02:28:58.598Z,11.60
2023-05-06T02:29:58.598Z,11.62
2023-05-06T02:30:58.590Z,11.60
2023-05-06T02:31:58.662Z,11.60
2023-05-06T02:32:58.647Z,11.59
2023-05-06T02:33:58.602Z,11.58
2023-05-06T02:34:58.538Z,11.56
2023-05-06T02:35:58.505Z,11.56
2023-05-06T02:36:58.527Z,11.56
2023-05-06T02:37:58.533Z,11.58
2023-05-06T02:38:58.515Z,11.56
2023-05-06T02:39:58.460Z,11.56
2023-05-06T02:40:58.487Z,11.56
2023-05-06T02:41:58.467Z,11.58
2023-05-06T02:42:58.503Z,11.56
2023-05-06T02:43:58.449Z,11.56
2023-05-06T02:44:58.457Z,11.58
2023-05-06T02:45:58.457Z,11.60
2023-05-06T02:46:58.376Z,11.62
2023-05-06T02:47:58.435Z,11.62
2023-05-06T02:48:58.403Z,11.60
2023-05-06T02:49:58.459Z,11.56
2023-05-06T02:50:58.382Z,11.53
2023-05-06T02:51:58.392Z,11.52
2023-05-06T02:52:58.313Z,11.51
2023-05-06T02:53:58.355Z,11.51
2023-05-06T02:54:58.289Z,11.51
2023-05-06T02:55:58.255Z,11.51
2023-05-06T02:56:58.281Z,11.52
2023-05-06T02:57:58.264Z,11.49
2023-05-06T02:58:58.272Z,11.49
2023-05-06T02:59:58.239Z,11.45
2023-05-06T03:00:58.279Z,11.49
2023-05-06T03:01:58.255Z,11.45
2023-05-06T03:02:58.209Z,11.44
2023-05-06T03:03:58.208Z,11.41
2023-05-06T03:04:58.224Z,11.41
2023-05-06T03:05:58.173Z,11.38
2023-05-06T03:06:58.155Z,11.37
2023-05-06T03:07:58.197Z,11.40
2023-05-06T03:08:58.192Z,11.43
2023-05-06T03:09:58.130Z,11.45
2023-05-06T03:10:58.192Z,11.51
2023-05-06T03:11:58.146Z,11.44
2023-05-06T03:12:58.075Z,11.48
2023-05-06T03:13:58.085Z,11.48
2023-05-06T03:14:58.122Z,11.48
2023-05-06T03:15:58.079Z,11.45
2023-05-06T03:16:58.103Z,11.48
2023-05-06T03:17:58.091Z,11.41
2023-05-06T03:18:58.092Z,11.41
2023-05-06T03:19:58.051Z,11.38
2023-05-06T03:20:58.063Z,11.38
2023-05-06T03:21:58.019Z,11.35
2023-05-06T03:22:58.062Z,11.33
2023-05-06T03:23:57.979Z,11.30
2023-05-06T03:24:57.995Z,11.30
2023-05-06T03:25:57.968Z,11.30
2023-05-06T03:26:58.089Z,11.25
2023-05-06T03:27:57.950Z,11.20
2023-05-06T03:28:57.964Z,11.23
2023-05-06T03:29:57.960Z,11.30
2023-05-06T03:30:57.906Z,11.26
2023-05-06T03:31:58.058Z,11.23
2023-05-06T03:32:57.889Z,11.19
2023-05-06T03:33:57.929Z,11.15
2023-05-06T03:34:57.954Z,11.18
2023-05-06T03:35:57.851Z,11.18
2023-05-06T03:36:57.856Z,11.18
2023-05-06T03:37:57.848Z,11.15
2023-05-06T03:38:57.829Z,11.15
2023-05-06T03:39:57.908Z,11.20
2023-05-06T03:40:57.848Z,11.20
2023-05-06T03:41:57.876Z,11.18
2023-05-06T03:42:57.982Z,11.19
2023-05-06T03:43:57.808Z,11.19
2023-05-06T03:44:57.792Z,11.18
2023-05-06T03:45:57.787Z,11.15
2023-05-06T03:46:57.724Z,11.16
2023-05-06T03:47:58.622Z,11.12
2023-05-06T03:48:57.749Z,11.13
2023-05-06T03:49:57.726Z,11.10
2023-05-06T03:50:57.697Z,11.16
2023-05-06T03:51:57.704Z,11.15
2023-05-06T03:52:57.774Z,11.12
2023-05-06T03:53:57.670Z,11.13
2023-05-06T03:54:57.700Z,11.12
2023-05-06T03:55:57.669Z,11.08
2023-05-06T03:56:57.669Z,11.19
2023-05-06T03:57:57.685Z,11.19
2023-05-06T03:58:57.644Z,11.22
2023-05-06T03:59:57.645Z,11.23
2023-05-06T04:00:57.612Z,11.22
2023-05-06T04:01:57.864Z,11.27
2023-05-06T04:02:57.752Z,11.25
2023-05-06T04:03:57.704Z,11.22
2023-05-06T04:04:57.667Z,11.26
2023-05-06T04:05:57.522Z,11.25
2023-05-06T04:06:57.634Z,11.30
2023-05-06T04:07:57.570Z,11.27
2023-05-06T04:08:57.519Z,11.30
2023-05-06T04:09:57.488Z,11.31
2023-05-06T04:10:57.534Z,11.34
2023-05-06T04:11:57.484Z,11.33
2023-05-06T04:12:57.501Z,11.34
2023-05-06T04:13:57.468Z,11.34
2023-05-06T04:14:57.518Z,11.34
2023-05-06T04:15:57.472Z,11.34
2023-05-06T04:16:57.405Z,11.37
2023-05-06T04:17:57.443Z,11.34
2023-05-06T04:18:57.418Z,11.34
2023-05-06T04:19:57.431Z,11.35
2023-05-06T04:20:57.367Z,11.41
2023-05-06T04:21:57.380Z,11.41
2023-05-06T04:22:57.376Z,11.49
2023-05-06T04:23:57.432Z,11.52
2023-05-06T04:24:57.323Z,11.49
2023-05-06T04:25:57.367Z,11.48
2023-05-06T04:26:57.275Z,11.48
2023-05-06T04:27:57.353Z,11.51
2023-05-06T04:28:57.285Z,11.53
2023-05-06T04:29:57.281Z,11.51
2023-05-06T04:30:57.368Z,11.56
2023-05-06T04:31:57.332Z,11.62
2023-05-06T04:32:57.326Z,11.60
2023-05-06T04:33:57.263Z,11.56
2023-05-06T04:34:57.292Z,11.56
2023-05-06T04:35:57.316Z,11.60
2023-05-06T04:36:57.231Z,11.65
2023-05-06T04:37:57.205Z,11.67
2023-05-06T04:38:57.231Z,11.65
2023-05-06T04:39:57.444Z,11.70
2023-05-06T04:40:57.177Z,11.70
2023-05-06T04:41:57.189Z,11.76
2023-05-06T04:42:57.102Z,11.74
2023-05-06T04:43:57.109Z,11.76
2023-05-06T04:44:57.155Z,11.73
2023-05-06T04:45:57.160Z,11.73
2023-05-06T04:46:57.111Z,11.77
2023-05-06T04:47:57.179Z,11.76
2023-05-06T04:48:57.105Z,11.78
2023-05-06T04:49:57.096Z,11.78
2023-05-06T04:50:57.062Z,11.80
2023-05-06T04:51:57.114Z,11.78
2023-05-06T04:52:57.052Z,11.83
2023-05-06T04:53:57.012Z,11.78
2023-05-06T04:54:57.010Z,11.78
2023-05-06T04:55:57.005Z,11.83
2023-05-06T04:56:57.030Z,11.83
2023-05-06T04:57:56.998Z,11.91
2023-05-06T04:58:56.983Z,11.96
2023-05-06T04:59:57.030Z,11.99
2023-05-06T05:00:57.011Z,12.02
2023-05-06T05:01:56.965Z,12.02
2023-05-06T05:02:57.943Z,12.05
2023-05-06T05:03:56.974Z,12.08
2023-05-06T05:04:56.926Z,12.10
2023-05-06T05:05:56.884Z,12.12
2023-05-06T05:06:56.948Z,12.14
2023-05-06T05:07:56.914Z,12.20
2023-05-06T05:08:57.132Z,12.20
2023-05-06T05:09:57.004Z,12.17
2023-05-06T05:10:56.881Z,12.17
2023-05-06T05:11:56.857Z,12.20
2023-05-06T05:12:56.980Z,12.21
2023-05-06T05:13:57.723Z,12.23
2023-05-06T05:14:56.842Z,12.26
2023-05-06T05:15:56.828Z,12.30
2023-05-06T05:16:56.897Z,12.32
2023-05-06T05:17:56.870Z,12.36
2023-05-06T05:18:56.775Z,12.40
2023-05-06T05:19:56.802Z,12.40
2023-05-06T05:20:56.742Z,12.44
2023-05-06T05:21:56.748Z,12.45
2023-05-06T05:22:56.741Z,12.51
2023-05-06T05:23:56.722Z,12.51
2023-05-06T05:24:56.759Z,12.50
2023-05-06T05:25:56.722Z,12.53
2023-05-06T05:26:57.015Z,12.55
2023-05-06T05:27:56.649Z,12.57
2023-05-06T05:28:56.683Z,12.61
2023-05-06T05:29:56.652Z,12.61
2023-05-06T05:30:56.680Z,12.68
2023-05-06T05:31:56.602Z,12.69
2023-05-06T05:32:56.804Z,12.66
2023-05-06T05:33:56.678Z,12.69
2023-05-06T05:34:56.598Z,12.76
2023-05-06T05:35:56.614Z,12.80
2023-05-06T05:36:57.127Z,12.84
2023-05-06T05:37:56.583Z,12.86
2023-05-06T05:38:56.576Z,12.86
2023-05-06T05:39:56.537Z,12.87
2023-05-06T05:40:56.743Z,12.90
2023-05-06T05:41:56.594Z,12.93
2023-05-06T05:42:56.530Z,12.93
2023-05-06T05:43:56.492Z,12.93
2023-05-06T05:44:56.515Z,12.93
2023-05-06T05:45:56.542Z,12.98
2023-05-06T05:46:56.494Z,12.99
2023-05-06T05:47:56.476Z,13.03
2023-05-06T05:48:56.470Z,13.08
2023-05-06T05:49:56.445Z,13.11
2023-05-06T05:50:56.446Z,13.17
2023-05-06T05:51:56.379Z,13.21
2023-05-06T05:52:56.540Z,13.23
2023-05-06T05:53:56.360Z,13.27
2023-05-06T05:54:56.430Z,13.30
2023-05-06T05:55:56.398Z,13.30
2023-05-06T05:56:56.432Z,13.37
2023-05-06T05:57:56.355Z,13.42
2023-05-06T05:58:56.395Z,13.47
2023-05-06T05:59:56.426Z,13.50
2023-05-06T06:00:56.335Z,13.55
2023-05-06T06:01:56.330Z,13.55
2023-05-06T06:02:56.379Z,13.60
2023-05-06T06:03:56.861Z,13.67
2023-05-06T06:04:56.471Z,13.71
2023-05-06T06:05:56.258Z,13.75
2023-05-06T06:06:56.267Z,13.80
2023-05-06T06:07:56.386Z,13.82
2023-05-06T06:08:56.288Z,13.86
2023-05-06T06:09:56.221Z,13.87
2023-05-06T06:10:56.308Z,13.89
2023-05-06T06:11:56.198Z,13.91
2023-05-06T06:12:56.192Z,13.94
2023-05-06T06:13:56.180Z,13.95
2023-05-06T06:14:56.193Z,14.01
2023-05-06T06:15:56.143Z,14.03
2023-05-06T06:16:56.194Z,14.03
2023-05-06T06:17:56.171Z,14.01
2023-05-06T06:18:56.156Z,14.04
2023-05-06T06:19:56.092Z,14.08
2023-05-06T06:20:56.096Z,14.11
2023-05-06T06:21:56.096Z,14.08
2023-05-06T06:22:56.448Z,14.08
2023-05-06T06:23:56.053Z,14.11
2023-05-06T06:24:56.018Z,14.16
2023-05-06T06:25:56.042Z,14.16
2023-05-06T06:26:56.046Z,14.18
2023-05-06T06:27:56.057Z,14.19
2023-05-06T06:28:56.021Z,14.22
2023-05-06T06:29:56.007Z,14.26
2023-05-06T06:30:56.027Z,14.30
2023-05-06T06:31:56.089Z,14.28
2023-05-06T06:32:56.077Z,14.30
2023-05-06T06:33:56.023Z,14.34
2023-05-06T06:34:55.952Z,14.40
2023-05-06T06:35:55.938Z,14.45
2023-05-06T06:36:55.902Z,14.48
2023-05-06T06:37:56.092Z,14.53
2023-05-06T06:38:55.884Z,14.51
2023-05-06T06:39:55.857Z,14.51
2023-05-06T06:40:55.897Z,14.51
2023-05-06T06:41:55.913Z,14.55
2023-05-06T06:42:55.936Z,14.58
2023-05-06T06:43:55.894Z,14.61
2023-05-06T06:44:55.895Z,14.67
2023-05-06T06:45:55.851Z,14.70
2023-05-06T06:46:55.814Z,14.77
2023-05-06T06:47:56.005Z,14.79
2023-05-06T06:48:55.847Z,14.86
2023-05-06T06:49:55.772Z,14.87
2023-05-06T06:50:55.777Z,14.93
2023-05-06T06:51:55.781Z,14.97
2023-05-06T06:52:55.783Z,15.02
2023-05-06T06:53:55.801Z,15.07
2023-05-06T06:54:55.774Z,15.11
2023-05-06T06:55:55.767Z,15.10
2023-05-06T06:56:55.739Z,15.08
2023-05-06T06:57:55.749Z,15.11
2023-05-06T06:58:55.700Z,15.17
2023-05-06T06:59:55.740Z,15.26
2023-05-06T07:00:55.760Z,15.30
2023-05-06T07:01:55.807Z,15.33
2023-05-06T07:02:55.715Z,15.33
2023-05-06T07:03:55.746Z,15.32
2023-05-06T07:04:55.634Z,15.35
2023-05-06T07:05:55.609Z,15.39
2023-05-06T07:06:55.571Z,15.44
2023-05-06T07:07:55.676Z,15.48
2023-05-06T07:08:55.591Z,15.51
2023-05-06T07:09:55.574Z,15.54
2023-05-06T07:10:55.694Z,15.60
2023-05-06T07:11:55.563Z,15.59
2023-05-06T07:12:55.592Z,15.57
2023-05-06T07:13:55.545Z,15.57
2023-05-06T07:14:55.587Z,15.59
2023-05-06T07:15:55.489Z,15.59
2023-05-06T07:16:55.497Z,15.63
2023-05-06T07:17:55.547Z,15.63
2023-05-06T07:18:55.473Z,15.65
2023-05-06T07:19:55.505Z,15.65
2023-05-06T07:20:55.485Z,15.73
2023-05-06T07:21:55.512Z,15.84
2023-05-06T07:22:55.447Z,15.98
2023-05-06T07:23:55.489Z,16.05
2023-05-06T07:24:55.398Z,16.12
2023-05-06T07:25:55.376Z,16.16
2023-05-06T07:26:55.373Z,16.24
2023-05-06T07:27:55.367Z,16.21
2023-05-06T07:28:55.340Z,16.18
2023-05-06T07:29:55.381Z,16.22
2023-05-06T07:30:55.349Z,16.24
2023-05-06T07:31:55.327Z,16.28
2023-05-06T07:32:55.328Z,16.37
2023-05-06T07:33:55.361Z,16.40
2023-05-06T07:34:55.335Z,16.43
2023-05-06T07:35:55.293Z,16.40
2023-05-06T07:36:55.275Z,16.49
2023-05-06T07:37:55.288Z,16.55
2023-05-06T07:38:55.343Z,16.61
2023-05-06T07:39:55.210Z,16.62
2023-05-06T07:40:55.202Z,16.64
2023-05-06T07:41:55.281Z,16.66
2023-05-06T07:42:55.309Z,16.73
2023-05-06T07:43:55.182Z,16.80
2023-05-06T07:44:55.293Z,16.82
2023-05-06T07:45:55.243Z,16.84
2023-05-06T07:46:55.267Z,16.91
2023-05-06T07:47:55.252Z,16.89
2023-05-06T07:48:55.179Z,16.87
2023-05-06T07:49:55.098Z,16.94
2023-05-06T07:50:55.100Z,16.92
2023-05-06T07:51:55.107Z,16.95
2023-05-06T07:52:55.128Z,16.99
2023-05-06T07:53:55.058Z,17.05
2023-05-06T07:54:55.043Z,17.19
2023-05-06T07:55:55.088Z,17.32
2023-05-06T07:56:55.088Z,17.44
2023-05-06T07:57:55.056Z,17.50
2023-05-06T07:58:55.075Z,17.47
2023-05-06T07:59:55.040Z,17.53
2023-05-06T08:00:55.022Z,17.54
2023-05-06T08:01:54.986Z,17.56
2023-05-06T08:02:55.025Z,17.72
2023-05-06T08:03:55.494Z,17.76
2023-05-06T08:04:55.095Z,17.73
2023-05-06T08:05:54.930Z,17.60
2023-05-06T08:06:54.958Z,17.54
2023-05-06T08:07:54.946Z,17.49
2023-05-06T08:08:54.928Z,17.47
2023-05-06T08:09:54.957Z,17.50
2023-05-06T08:10:54.965Z,17.49
2023-05-06T08:11:54.998Z,17.49
2023-05-06T08:12:54.942Z,17.49
2023-05-06T08:13:54.891Z,17.50
2023-05-06T08:14:54.906Z,17.56
2023-05-06T08:15:54.932Z,17.66
2023-05-06T08:16:54.928Z,17.71
2023-05-06T08:17:54.866Z,17.80
2023-05-06T08:18:54.915Z,17.98
2023-05-06T08:19:54.910Z,18.09
2023-05-06T08:20:54.801Z,18.12
2023-05-06T08:21:54.936Z,18.11
2023-05-06T08:22:54.818Z,18.06
2023-05-06T08:23:54.811Z,18.05
2023-05-06T08:24:54.770Z,18.15
2023-05-06T08:25:54.864Z,18.36
2023-05-06T08:26:54.751Z,18.67
2023-05-06T08:27:43.677Z,18.94
2023-05-06T08:28:43.559Z,19.27
2023-05-06T08:29:43.577Z,19.57
2023-05-06T08:30:43.588Z,19.55
2023-05-06T08:31:43.571Z,19.49
2023-05-06T08:32:43.550Z,19.45
2023-05-06T08:33:43.500Z,19.37
2023-05-06T08:34:43.495Z,19.26
2023-05-06T08:35:43.506Z,19.30
2023-05-06T08:36:43.508Z,19.56
2023-05-06T08:37:43.459Z,19.79
2023-05-06T08:38:43.572Z,19.87
2023-05-06T08:39:43.483Z,20.07
2023-05-06T08:40:43.409Z,20.37
2023-05-06T08:41:43.421Z,20.67
2023-05-06T08:42:43.795Z,20.58
2023-05-06T08:43:43.409Z,20.39
2023-05-06T08:44:43.399Z,20.21
2023-05-06T08:45:43.441Z,20.29
2023-05-06T08:46:43.390Z,20.46
2023-05-06T08:47:43.373Z,20.50
2023-05-06T08:48:43.354Z,20.46
2023-05-06T08:49:43.321Z,20.39
2023-05-06T08:50:43.443Z,20.33
2023-05-06T08:51:43.410Z,20.32
2023-05-06T08:52:43.312Z,20.32
2023-05-06T08:53:43.529Z,20.53
2023-05-06T08:54:43.329Z,20.71
2023-05-06T08:55:43.280Z,21.15
2023-05-06T08:56:43.333Z,21.25
2023-05-06T08:57:43.298Z,21.30
2023-05-06T08:58:43.346Z,21.22
2023-05-06T08:59:43.443Z,21.53
2023-05-06T09:00:43.218Z,21.89
2023-05-06T09:01:43.284Z,22.23
2023-05-06T09:02:43.498Z,22.58
2023-05-06T09:03:43.194Z,22.62
2023-05-06T09:04:43.167Z,22.31
2023-05-06T09:05:43.178Z,22.25
2023-05-06T09:06:43.192Z,22.41
2023-05-06T09:07:43.153Z,22.59
2023-05-06T09:08:43.166Z,23.04
2023-05-06T09:09:43.131Z,23.40
2023-05-06T09:10:43.127Z,23.44
2023-05-06T09:11:43.183Z,22.86
2023-05-06T09:12:43.150Z,22.19
2023-05-06T09:13:43.165Z,21.89
2023-05-06T09:14:43.090Z,21.81
2023-05-06T09:15:43.068Z,22.07
2023-05-06T09:16:43.103Z,22.28
2023-05-06T09:17:43.060Z,22.68
2023-05-06T09:18:43.066Z,22.84
2023-05-06T09:19:42.998Z,22.96
2023-05-06T09:20:43.102Z,22.88
2023-05-06T09:21:43.030Z,23.26
2023-05-06T09:22:42.990Z,23.67
2023-05-06T09:23:43.024Z,23.59
2023-05-06T09:24:42.978Z,23.45
2023-05-06T09:25:42.967Z,23.88
2023-05-06T09:26:43.021Z,24.24
2023-05-06T09:27:42.980Z,24.53
2023-05-06T09:28:42.989Z,24.48
2023-05-06T09:29:42.906Z,24.69
2023-05-06T09:30:43.021Z,24.99
2023-05-06T09:31:42.919Z,24.92
2023-05-06T09:32:42.900Z,24.32
2023-05-06T09:33:42.861Z,24.46
2023-05-06T09:34:42.908Z,24.94
2023-05-06T09:35:42.896Z,25.36
2023-05-06T09:36:42.831Z,25.51
2023-05-06T09:37:42.855Z,25.46
2023-05-06T09:38:42.838Z,25.61
2023-05-06T09:39:42.804Z,25.76
2023-05-06T09:40:42.863Z,25.30
2023-05-06T09:41:42.849Z,24.88
2023-05-06T09:42:42.745Z,24.28
2023-05-06T09:43:42.753Z,24.58
2023-05-06T09:44:42.818Z,25.07
2023-05-06T09:45:42.790Z,25.48
2023-05-06T09:46:42.779Z,25.77
2023-05-06T09:47:42.774Z,25.89
2023-05-06T09:48:42.738Z,25.83
2023-05-06T09:49:42.935Z,25.85
2023-05-06T09:50:42.681Z,25.93
2023-05-06T09:51:42.667Z,25.91
2023-05-06T09:52:42.715Z,25.66
2023-05-06T09:53:42.645Z,25.61
2023-05-06T09:54:42.664Z,25.88
2023-05-06T09:55:42.623Z,25.70
2023-05-06T09:56:42.618Z,25.21
2023-05-06T09:57:42.664Z,25.62
2023-05-06T09:58:42.608Z,25.66
2023-05-06T09:59:42.591Z,25.58
2023-05-06T10:00:42.590Z,25.48
2023-05-06T10:01:42.620Z,25.63
2023-05-06T10:02:42.711Z,25.71
2023-05-06T10:03:42.619Z,25.98
2023-05-06T10:04:42.735Z,26.16
2023-05-06T10:05:42.527Z,26.07
2023-05-06T10:06:42.495Z,25.85
2023-05-06T10:07:42.518Z,25.63
2023-05-06T10:08:42.470Z,25.19
2023-05-06T10:09:42.458Z,24.88
2023-05-06T10:10:42.449Z,24.86
2023-05-06T10:11:42.432Z,25.41
2023-05-06T10:12:42.504Z,25.70
2023-05-06T10:13:42.461Z,25.88
2023-05-06T10:14:42.415Z,25.63
2023-05-06T10:15:42.702Z,24.82
2023-05-06T10:16:42.536Z,24.34
2023-05-06T10:17:42.390Z,24.28
2023-05-06T10:18:42.381Z,24.61
2023-05-06T10:19:42.504Z,24.88
2023-05-06T10:20:42.422Z,24.97
2023-05-06T10:21:42.310Z,25.07
2023-05-06T10:22:42.325Z,25.24
2023-05-06T10:23:42.292Z,25.62
2023-05-06T10:24:42.268Z,25.98
2023-05-06T10:25:42.267Z,26.26
2023-05-06T10:26:42.312Z,26.44
2023-05-06T10:27:42.271Z,26.63
2023-05-06T10:28:42.330Z,26.85
2023-05-06T10:29:42.247Z,27.00
2023-05-06T10:30:42.258Z,27.00
2023-05-06T10:31:42.357Z,26.92
2023-05-06T10:32:42.278Z,27.05
2023-05-06T10:33:42.505Z,27.19
2023-05-06T10:34:42.313Z,27.11
2023-05-06T10:35:42.261Z,27.03
2023-05-06T10:36:42.217Z,26.66
2023-05-06T10:37:42.198Z,26.37
2023-05-06T10:38:42.166Z,26.23
2023-05-06T10:39:42.410Z,26.24
2023-05-06T10:40:42.108Z,26.37
2023-05-06T10:41:42.146Z,26.39
2023-05-06T10:42:42.127Z,26.39
2023-05-06T10:43:42.104Z,26.45
2023-05-06T10:44:42.132Z,26.39
2023-05-06T10:45:42.326Z,26.24
2023-05-06T10:46:42.038Z,25.99
2023-05-06T10:47:42.050Z,25.76
2023-05-06T10:48:42.031Z,25.78
2023-05-06T10:49:42.029Z,25.61
2023-05-06T10:50:42.010Z,25.30
2023-05-06T10:51:41.979Z,24.96
2023-05-06T10:52:42.969Z,24.79
2023-05-06T10:53:42.065Z,24.93
2023-05-06T10:54:41.990Z,25.62
2023-05-06T10:55:41.945Z,26.46
2023-05-06T10:56:41.934Z,27.41
2023-05-06T10:57:41.958Z,28.08
2023-05-06T10:58:41.952Z,27.60
2023-05-06T10:59:41.967Z,27.68
2023-05-06T11:00:42.034Z,27.64
2023-05-06T11:01:41.910Z,27.48
2023-05-06T11:02:41.901Z,27.44
2023-05-06T11:03:41.876Z,27.88
2023-05-06T11:04:41.886Z,28.80
2023-05-06T11:05:41.845Z,29.31
2023-05-06T11:06:41.822Z,29.06
2023-05-06T11:07:41.855Z,28.53
2023-05-06T11:08:41.820Z,28.33
2023-05-06T11:09:41.800Z,28.04
2023-05-06T11:10:41.771Z,27.58
2023-05-06T11:11:41.765Z,28.53
2023-05-06T11:12:41.803Z,28.75
2023-05-06T11:13:41.774Z,28.40
2023-05-06T11:14:41.769Z,27.88
2023-05-06T11:15:41.770Z,27.64
2023-05-06T11:16:41.777Z,27.25
2023-05-06T11:17:41.755Z,27.20
2023-05-06T11:18:41.736Z,27.67
2023-05-06T11:19:41.715Z,28.08
2023-05-06T11:20:41.745Z,28.27
2023-05-06T11:21:41.709Z,28.08
2023-05-06T11:22:41.704Z,27.95
2023-05-06T11:23:41.757Z,27.91
2023-05-06T11:24:41.655Z,28.06
2023-05-06T11:25:41.696Z,28.13
2023-05-06T11:26:41.649Z,28.19
2023-05-06T11:27:41.674Z,28.41
2023-05-06T11:28:41.625Z,28.60
2023-05-06T11:29:41.604Z,28.68
2023-05-06T11:30:41.706Z,28.59
2023-05-06T11:31:41.609Z,28.56
2023-05-06T11:32:41.612Z,28.20
2023-05-06T11:33:41.562Z,28.15
2023-05-06T11:34:41.655Z,28.35
2023-05-06T11:35:41.506Z,28.40
2023-05-06T11:36:41.507Z,28.37
2023-05-06T11:37:41.560Z,28.57
2023-05-06T11:38:41.559Z,28.78
2023-05-06T11:39:41.513Z,28.55
2023-05-06T11:40:41.462Z,28.28
2023-05-06T11:41:41.572Z,28.06
2023-05-06T11:42:41.468Z,27.81
2023-05-06T11:43:41.472Z,27.50
2023-05-06T11:44:41.444Z,27.26
2023-05-06T11:45:41.725Z,26.82
2023-05-06T11:46:41.465Z,26.93
2023-05-06T11:47:41.461Z,27.53
2023-05-06T11:48:41.373Z,27.78
2023-05-06T11:49:41.484Z,27.75
2023-05-06T11:50:41.354Z,27.53
2023-05-06T11:51:41.357Z,27.22
2023-05-06T11:52:41.364Z,27.03
2023-05-06T11:53:41.602Z,27.18
2023-05-06T11:54:41.350Z,27.41
2023-05-06T11:55:41.311Z,28.08
2023-05-06T11:56:41.343Z,28.75
2023-05-06T11:57:41.336Z,29.55
2023-05-06T11:58:41.262Z,30.17
2023-05-06T11:59:41.307Z,29.24
2023-05-06T12:00:41.309Z,28.60
2023-05-06T12:01:41.277Z,29.22
2023-05-06T12:02:41.338Z,29.79
2023-05-06T12:03:41.400Z,30.29
2023-05-06T12:04:41.417Z,30.26
2023-05-06T12:05:41.195Z,30.48
2023-05-06T12:06:41.156Z,30.69
2023-05-06T12:07:41.184Z,30.55
2023-05-06T12:08:41.152Z,30.91
2023-05-06T12:09:41.216Z,31.15
2023-05-06T12:10:41.205Z,30.32
2023-05-06T12:11:42.637Z,29.16
2023-05-06T12:12:41.174Z,28.45
2023-05-06T12:13:41.120Z,29.21
2023-05-06T12:14:41.151Z,29.50
2023-05-06T12:15:41.151Z,29.83
2023-05-06T12:16:41.231Z,30.21
2023-05-06T12:17:41.104Z,29.98
2023-05-06T12:18:41.088Z,30.11
2023-05-06T12:19:41.103Z,30.35
2023-05-06T12:20:41.018Z,30.31
2023-05-06T12:21:41.073Z,30.48
2023-05-06T12:22:41.003Z,30.88
2023-05-06T12:23:41.095Z,30.99
2023-05-06T12:24:41.032Z,30.89
2023-05-06T12:25:40.973Z,31.10
2023-05-06T12:26:41.003Z,31.41
2023-05-06T12:27:40.973Z,31.22
2023-05-06T12:28:41.003Z,31.18
2023-05-06T12:29:40.947Z,31.52
2023-05-06T12:30:41.415Z,31.97
2023-05-06T12:31:40.981Z,32.22
2023-05-06T12:32:40.935Z,32.04
2023-05-06T12:33:40.981Z,32.02
2023-05-06T12:34:40.910Z,32.04
2023-05-06T12:35:41.083Z,31.70
2023-05-06T12:36:40.906Z,31.52
2023-05-06T12:37:40.897Z,31.54
2023-05-06T12:38:41.236Z,31.48
2023-05-06T12:39:40.840Z,31.23
2023-05-06T12:40:40.817Z,31.22
2023-05-06T12:41:40.851Z,31.02
2023-05-06T12:42:40.883Z,30.40
2023-05-06T12:43:40.900Z,30.13
2023-05-06T12:44:40.830Z,30.32
2023-05-06T12:45:40.910Z,30.20
2023-05-06T12:46:40.789Z,29.49
2023-05-06T12:47:40.836Z,29.22
2023-05-06T12:48:40.734Z,29.28
2023-05-06T12:49:40.808Z,29.67
2023-05-06T12:50:40.782Z,29.76
2023-05-06T12:51:40.716Z,29.67